sensor_id;sensor_type;location;lat;lon;timestamp;P1;durP1;ratioP1;P2;durP2;ratioP2
10641;SDS011;5369;49.586;8.646;2022-12-16T00:00:20;30.13;;;16.03;;
10641;SDS011;5369;49.586;8.646;2022-12-16T00:02:46;27.33;;;16.33;;
10641;SDS011;5369;49.586;8.646;2022-12-16T00:05:13;24.30;;;14.70;;
10641;SDS011;5369;49.586;8.646;2022-12-16T00:07:39;24.10;;;14.17;;
10641;SDS011;5369;49.586;8.646;2022-12-16T00:10:05;24.50;;;15.07;;
10641;SDS011;5369;49.586;8.646;2022-12-16T00:12:32;25.80;;;14.93;;
10641;SDS011;5369;49.586;8.646;2022-12-16T00:14:58;25.30;;;14.93;;
10641;SDS011;5369;49.586;8.646;2022-12-16T00:17:24;26.90;;;15.20;;
10641;SDS011;5369;49.586;8.646;2022-12-16T00:19:50;25.63;;;14.80;;
10641;SDS011;5369;49.586;8.646;2022-12-16T00:22:16;24.03;;;14.90;;
10641;SDS011;5369;49.586;8.646;2022-12-16T00:24:43;26.33;;;15.10;;
10641;SDS011;5369;49.586;8.646;2022-12-16T00:27:09;25.33;;;15.07;;
10641;SDS011;5369;49.586;8.646;2022-12-16T00:29:35;26.30;;;15.07;;
10641;SDS011;5369;49.586;8.646;2022-12-16T00:32:01;24.83;;;14.50;;
10641;SDS011;5369;49.586;8.646;2022-12-16T00:34:28;25.67;;;15.07;;
10641;SDS011;5369;49.586;8.646;2022-12-16T00:36:54;24.63;;;14.60;;
10641;SDS011;5369;49.586;8.646;2022-12-16T00:39:20;24.43;;;14.23;;
10641;SDS011;5369;49.586;8.646;2022-12-16T00:41:46;25.27;;;14.67;;
10641;SDS011;5369;49.586;8.646;2022-12-16T00:44:13;24.87;;;14.27;;
10641;SDS011;5369;49.586;8.646;2022-12-16T00:46:39;23.83;;;14.90;;
10641;SDS011;5369;49.586;8.646;2022-12-16T00:49:05;26.37;;;15.57;;
10641;SDS011;5369;49.586;8.646;2022-12-16T00:51:31;25.20;;;15.13;;
10641;SDS011;5369;49.586;8.646;2022-12-16T00:53:57;23.57;;;14.17;;
10641;SDS011;5369;49.586;8.646;2022-12-16T00:56:23;25.23;;;14.43;;
10641;SDS011;5369;49.586;8.646;2022-12-16T00:58:49;24.07;;;14.47;;
10641;SDS011;5369;49.586;8.646;2022-12-16T01:01:15;26.23;;;14.80;;
10641;SDS011;5369;49.586;8.646;2022-12-16T01:03:42;23.77;;;14.10;;
10641;SDS011;5369;49.586;8.646;2022-12-16T01:06:12;20.67;;;13.20;;
10641;SDS011;5369;49.586;8.646;2022-12-16T01:08:39;25.57;;;14.83;;
10641;SDS011;5369;49.586;8.646;2022-12-16T01:11:13;25.30;;;15.07;;
10641;SDS011;5369;49.586;8.646;2022-12-16T01:13:39;24.33;;;13.90;;
10641;SDS011;5369;49.586;8.646;2022-12-16T01:16:05;19.60;;;13.23;;
10641;SDS011;5369;49.586;8.646;2022-12-16T01:18:31;23.77;;;14.83;;
10641;SDS011;5369;49.586;8.646;2022-12-16T01:21:01;25.73;;;14.07;;
10641;SDS011;5369;49.586;8.646;2022-12-16T01:23:27;22.70;;;13.63;;
10641;SDS011;5369;49.586;8.646;2022-12-16T01:25:54;24.23;;;14.23;;
10641;SDS011;5369;49.586;8.646;2022-12-16T01:28:23;23.37;;;14.00;;
10641;SDS011;5369;49.586;8.646;2022-12-16T01:30:53;23.60;;;13.47;;
10641;SDS011;5369;49.586;8.646;2022-12-16T01:33:21;23.50;;;13.43;;
10641;SDS011;5369;49.586;8.646;2022-12-16T01:35:47;20.70;;;12.77;;
10641;SDS011;5369;49.586;8.646;2022-12-16T01:38:14;23.70;;;13.37;;
10641;SDS011;5369;49.586;8.646;2022-12-16T01:40:40;20.73;;;13.20;;
10641;SDS011;5369;49.586;8.646;2022-12-16T01:43:10;25.27;;;13.23;;
10641;SDS011;5369;49.586;8.646;2022-12-16T01:45:37;20.83;;;12.50;;
10641;SDS011;5369;49.586;8.646;2022-12-16T01:48:19;23.20;;;14.07;;
10641;SDS011;5369;49.586;8.646;2022-12-16T01:50:46;24.43;;;13.97;;
10641;SDS011;5369;49.586;8.646;2022-12-16T01:53:14;22.60;;;13.40;;
10641;SDS011;5369;49.586;8.646;2022-12-16T01:55:42;21.50;;;13.10;;
10641;SDS011;5369;49.586;8.646;2022-12-16T01:58:15;23.43;;;13.33;;
10641;SDS011;5369;49.586;8.646;2022-12-16T02:00:43;22.50;;;13.70;;
10641;SDS011;5369;49.586;8.646;2022-12-16T02:03:09;21.80;;;12.80;;
10641;SDS011;5369;49.586;8.646;2022-12-16T02:05:37;24.70;;;14.10;;
10641;SDS011;5369;49.586;8.646;2022-12-16T02:10:38;20.07;;;13.07;;
10641;SDS011;5369;49.586;8.646;2022-12-16T02:13:18;22.03;;;12.70;;
10641;SDS011;5369;49.586;8.646;2022-12-16T02:21:04;22.40;;;13.23;;
10641;SDS011;5369;49.586;8.646;2022-12-16T02:34:33;23.63;;;12.83;;
10641;SDS011;5369;49.586;8.646;2022-12-16T02:36:40;21.30;;;12.43;;
10641;SDS011;5369;49.586;8.646;2022-12-16T02:39:11;21.13;;;12.40;;
10641;SDS011;5369;49.586;8.646;2022-12-16T02:41:43;22.43;;;13.17;;
10641;SDS011;5369;49.586;8.646;2022-12-16T02:44:12;22.07;;;12.13;;
10641;SDS011;5369;49.586;8.646;2022-12-16T02:46:42;22.90;;;13.33;;
10641;SDS011;5369;49.586;8.646;2022-12-16T02:51:43;21.37;;;12.93;;
10641;SDS011;5369;49.586;8.646;2022-12-16T02:54:09;22.80;;;12.63;;
10641;SDS011;5369;49.586;8.646;2022-12-16T02:59:14;23.00;;;13.67;;
10641;SDS011;5369;49.586;8.646;2022-12-16T03:01:51;22.87;;;12.93;;
10641;SDS011;5369;49.586;8.646;2022-12-16T03:04:23;18.37;;;11.80;;
10641;SDS011;5369;49.586;8.646;2022-12-16T03:06:51;21.83;;;11.97;;
10641;SDS011;5369;49.586;8.646;2022-12-16T03:09:20;23.50;;;12.67;;
10641;SDS011;5369;49.586;8.646;2022-12-16T03:11:47;20.93;;;12.17;;
10641;SDS011;5369;49.586;8.646;2022-12-16T03:14:14;19.07;;;11.47;;
10641;SDS011;5369;49.586;8.646;2022-12-16T03:16:41;26.30;;;13.50;;
10641;SDS011;5369;49.586;8.646;2022-12-16T03:19:09;22.27;;;12.83;;
10641;SDS011;5369;49.586;8.646;2022-12-16T03:21:51;22.17;;;13.07;;
10641;SDS011;5369;49.586;8.646;2022-12-16T03:24:20;22.33;;;13.00;;
10641;SDS011;5369;49.586;8.646;2022-12-16T03:29:21;21.27;;;12.23;;
10641;SDS011;5369;49.586;8.646;2022-12-16T03:31:56;21.47;;;12.13;;
10641;SDS011;5369;49.586;8.646;2022-12-16T03:34:30;19.80;;;12.63;;
10641;SDS011;5369;49.586;8.646;2022-12-16T03:36:59;21.27;;;12.20;;
10641;SDS011;5369;49.586;8.646;2022-12-16T03:39:26;21.87;;;13.20;;
10641;SDS011;5369;49.586;8.646;2022-12-16T03:41:53;26.50;;;13.80;;
10641;SDS011;5369;49.586;8.646;2022-12-16T03:44:21;23.30;;;13.40;;
10641;SDS011;5369;49.586;8.646;2022-12-16T03:46:47;22.10;;;12.03;;
10641;SDS011;5369;49.586;8.646;2022-12-16T03:49:14;21.37;;;13.17;;
10641;SDS011;5369;49.586;8.646;2022-12-16T03:51:40;22.23;;;12.47;;
10641;SDS011;5369;49.586;8.646;2022-12-16T03:54:06;22.90;;;12.77;;
10641;SDS011;5369;49.586;8.646;2022-12-16T03:56:32;21.20;;;12.83;;
10641;SDS011;5369;49.586;8.646;2022-12-16T03:58:58;18.40;;;10.80;;
10641;SDS011;5369;49.586;8.646;2022-12-16T04:01:24;18.83;;;11.37;;
10641;SDS011;5369;49.586;8.646;2022-12-16T04:03:51;19.50;;;11.80;;
10641;SDS011;5369;49.586;8.646;2022-12-16T04:06:17;19.77;;;12.03;;
10641;SDS011;5369;49.586;8.646;2022-12-16T04:08:43;22.00;;;12.80;;
10641;SDS011;5369;49.586;8.646;2022-12-16T04:11:11;23.03;;;12.30;;
10641;SDS011;5369;49.586;8.646;2022-12-16T04:13:56;21.53;;;11.67;;
10641;SDS011;5369;49.586;8.646;2022-12-16T04:16:41;20.70;;;11.53;;
10641;SDS011;5369;49.586;8.646;2022-12-16T04:19:27;20.03;;;10.90;;
10641;SDS011;5369;49.586;8.646;2022-12-16T04:22:25;22.23;;;12.47;;
10641;SDS011;5369;49.586;8.646;2022-12-16T04:25:11;22.90;;;12.63;;
10641;SDS011;5369;49.586;8.646;2022-12-16T04:27:38;24.57;;;13.17;;
10641;SDS011;5369;49.586;8.646;2022-12-16T04:30:11;24.03;;;13.20;;
10641;SDS011;5369;49.586;8.646;2022-12-16T04:35:43;21.77;;;12.83;;
10641;SDS011;5369;49.586;8.646;2022-12-16T04:38:29;22.17;;;12.63;;
10641;SDS011;5369;49.586;8.646;2022-12-16T04:41:14;20.10;;;12.20;;
10641;SDS011;5369;49.586;8.646;2022-12-16T04:43:59;23.70;;;13.10;;
10641;SDS011;5369;49.586;8.646;2022-12-16T04:46:44;24.13;;;12.27;;
10641;SDS011;5369;49.586;8.646;2022-12-16T04:49:29;21.83;;;12.27;;
10641;SDS011;5369;49.586;8.646;2022-12-16T04:52:14;24.77;;;13.87;;
10641;SDS011;5369;49.586;8.646;2022-12-16T04:54:59;23.60;;;13.00;;
10641;SDS011;5369;49.586;8.646;2022-12-16T04:57:47;25.00;;;15.07;;
10641;SDS011;5369;49.586;8.646;2022-12-16T05:00:33;25.03;;;14.10;;
10641;SDS011;5369;49.586;8.646;2022-12-16T05:03:18;23.40;;;13.30;;
10641;SDS011;5369;49.586;8.646;2022-12-16T05:06:03;24.77;;;13.53;;
10641;SDS011;5369;49.586;8.646;2022-12-16T05:08:48;25.90;;;13.17;;
10641;SDS011;5369;49.586;8.646;2022-12-16T05:11:34;25.43;;;13.77;;
10641;SDS011;5369;49.586;8.646;2022-12-16T05:14:19;24.13;;;13.50;;
10641;SDS011;5369;49.586;8.646;2022-12-16T05:17:03;26.77;;;14.37;;
10641;SDS011;5369;49.586;8.646;2022-12-16T05:19:49;24.97;;;13.20;;
10641;SDS011;5369;49.586;8.646;2022-12-16T05:22:33;25.03;;;13.63;;
10641;SDS011;5369;49.586;8.646;2022-12-16T05:25:18;24.47;;;13.47;;
10641;SDS011;5369;49.586;8.646;2022-12-16T05:28:04;27.87;;;13.50;;
10641;SDS011;5369;49.586;8.646;2022-12-16T05:30:49;24.37;;;13.53;;
10641;SDS011;5369;49.586;8.646;2022-12-16T05:33:34;25.13;;;14.27;;
10641;SDS011;5369;49.586;8.646;2022-12-16T05:36:19;24.97;;;13.43;;
10641;SDS011;5369;49.586;8.646;2022-12-16T05:39:04;23.03;;;12.33;;
10641;SDS011;5369;49.586;8.646;2022-12-16T05:41:49;26.07;;;14.83;;
10641;SDS011;5369;49.586;8.646;2022-12-16T05:44:34;24.75;;;15.20;;
10641;SDS011;5369;49.586;8.646;2022-12-16T05:47:19;25.20;;;14.23;;
10641;SDS011;5369;49.586;8.646;2022-12-16T05:50:04;25.57;;;14.40;;
10641;SDS011;5369;49.586;8.646;2022-12-16T05:52:50;23.70;;;13.70;;
10641;SDS011;5369;49.586;8.646;2022-12-16T05:55:35;22.97;;;12.07;;
10641;SDS011;5369;49.586;8.646;2022-12-16T05:58:20;25.90;;;15.80;;
10641;SDS011;5369;49.586;8.646;2022-12-16T06:01:05;25.40;;;14.47;;
10641;SDS011;5369;49.586;8.646;2022-12-16T06:03:57;27.33;;;14.83;;
10641;SDS011;5369;49.586;8.646;2022-12-16T06:06:42;24.60;;;13.40;;
10641;SDS011;5369;49.586;8.646;2022-12-16T06:09:27;26.00;;;14.70;;
10641;SDS011;5369;49.586;8.646;2022-12-16T06:12:12;27.93;;;14.67;;
10641;SDS011;5369;49.586;8.646;2022-12-16T06:14:57;25.92;;;15.82;;
10641;SDS011;5369;49.586;8.646;2022-12-16T06:17:48;26.37;;;14.57;;
10641;SDS011;5369;49.586;8.646;2022-12-16T06:20:35;28.30;;;14.33;;
10641;SDS011;5369;49.586;8.646;2022-12-16T06:23:20;25.40;;;14.43;;
10641;SDS011;5369;49.586;8.646;2022-12-16T06:26:05;22.70;;;12.47;;
10641;SDS011;5369;49.586;8.646;2022-12-16T06:28:50;26.38;;;16.10;;
10641;SDS011;5369;49.586;8.646;2022-12-16T06:31:35;30.75;;;16.40;;
10641;SDS011;5369;49.586;8.646;2022-12-16T06:34:20;30.60;;;16.60;;
10641;SDS011;5369;49.586;8.646;2022-12-16T06:37:05;30.60;;;15.70;;
10641;SDS011;5369;49.586;8.646;2022-12-16T06:39:50;24.80;;;14.00;;
10641;SDS011;5369;49.586;8.646;2022-12-16T06:42:38;24.93;;;13.97;;
10641;SDS011;5369;49.586;8.646;2022-12-16T06:45:23;25.33;;;14.50;;
10641;SDS011;5369;49.586;8.646;2022-12-16T06:48:09;25.13;;;14.17;;
10641;SDS011;5369;49.586;8.646;2022-12-16T06:50:54;28.58;;;16.48;;
10641;SDS011;5369;49.586;8.646;2022-12-16T06:53:39;26.57;;;16.27;;
10641;SDS011;5369;49.586;8.646;2022-12-16T06:56:24;27.88;;;16.05;;
10641;SDS011;5369;49.586;8.646;2022-12-16T06:59:09;27.83;;;19.85;;
10641;SDS011;5369;49.586;8.646;2022-12-16T07:01:54;27.20;;;16.30;;
10641;SDS011;5369;49.586;8.646;2022-12-16T07:04:39;25.45;;;17.27;;
10641;SDS011;5369;49.586;8.646;2022-12-16T07:07:24;24.97;;;15.53;;
10641;SDS011;5369;49.586;8.646;2022-12-16T07:10:09;27.73;;;16.90;;
10641;SDS011;5369;49.586;8.646;2022-12-16T07:12:58;31.20;;;17.63;;
10641;SDS011;5369;49.586;8.646;2022-12-16T07:15:44;31.03;;;17.13;;
10641;SDS011;5369;49.586;8.646;2022-12-16T07:18:29;34.67;;;18.67;;
10641;SDS011;5369;49.586;8.646;2022-12-16T07:21:14;27.93;;;16.00;;
10641;SDS011;5369;49.586;8.646;2022-12-16T07:23:59;25.47;;;14.87;;
10641;SDS011;5369;49.586;8.646;2022-12-16T07:26:44;28.03;;;15.30;;
10641;SDS011;5369;49.586;8.646;2022-12-16T07:29:29;32.00;;;17.47;;
10641;SDS011;5369;49.586;8.646;2022-12-16T07:32:14;24.53;;;14.37;;
10641;SDS011;5369;49.586;8.646;2022-12-16T07:34:59;28.47;;;16.47;;
10641;SDS011;5369;49.586;8.646;2022-12-16T07:37:44;29.77;;;16.90;;
10641;SDS011;5369;49.586;8.646;2022-12-16T07:40:29;27.87;;;16.13;;
10641;SDS011;5369;49.586;8.646;2022-12-16T07:43:13;28.77;;;15.87;;
10641;SDS011;5369;49.586;8.646;2022-12-16T07:45:58;26.47;;;15.03;;
10641;SDS011;5369;49.586;8.646;2022-12-16T07:48:43;28.63;;;15.03;;
10641;SDS011;5369;49.586;8.646;2022-12-16T07:51:28;30.10;;;16.17;;
10641;SDS011;5369;49.586;8.646;2022-12-16T07:54:13;27.27;;;14.00;;
10641;SDS011;5369;49.586;8.646;2022-12-16T07:56:58;29.53;;;16.93;;
10641;SDS011;5369;49.586;8.646;2022-12-16T08:00:01;32.07;;;18.00;;
10641;SDS011;5369;49.586;8.646;2022-12-16T08:02:50;33.20;;;17.70;;
10641;SDS011;5369;49.586;8.646;2022-12-16T08:05:35;31.90;;;17.40;;
10641;SDS011;5369;49.586;8.646;2022-12-16T08:08:20;33.00;;;17.60;;
10641;SDS011;5369;49.586;8.646;2022-12-16T08:11:05;33.10;;;17.70;;
10641;SDS011;5369;49.586;8.646;2022-12-16T08:13:50;34.80;;;19.67;;
10641;SDS011;5369;49.586;8.646;2022-12-16T08:16:35;32.10;;;18.27;;
10641;SDS011;5369;49.586;8.646;2022-12-16T08:19:20;31.40;;;18.80;;
10641;SDS011;5369;49.586;8.646;2022-12-16T08:22:04;30.80;;;17.13;;
10641;SDS011;5369;49.586;8.646;2022-12-16T08:24:50;34.47;;;18.53;;
10641;SDS011;5369;49.586;8.646;2022-12-16T08:27:35;35.80;;;19.20;;
10641;SDS011;5369;49.586;8.646;2022-12-16T08:30:20;35.83;;;19.60;;
10641;SDS011;5369;49.586;8.646;2022-12-16T08:33:05;33.30;;;20.13;;
10641;SDS011;5369;49.586;8.646;2022-12-16T08:35:50;37.57;;;20.00;;
10641;SDS011;5369;49.586;8.646;2022-12-16T08:38:35;33.20;;;19.43;;
10641;SDS011;5369;49.586;8.646;2022-12-16T08:41:20;35.33;;;19.57;;
10641;SDS011;5369;49.586;8.646;2022-12-16T08:44:05;32.27;;;18.13;;
10641;SDS011;5369;49.586;8.646;2022-12-16T08:46:50;26.17;;;15.47;;
10641;SDS011;5369;49.586;8.646;2022-12-16T08:49:35;28.83;;;16.00;;
10641;SDS011;5369;49.586;8.646;2022-12-16T08:52:20;25.43;;;15.87;;
10641;SDS011;5369;49.586;8.646;2022-12-16T08:55:05;33.27;;;17.13;;
10641;SDS011;5369;49.586;8.646;2022-12-16T08:57:54;29.57;;;16.90;;
10641;SDS011;5369;49.586;8.646;2022-12-16T09:00:40;26.77;;;16.13;;
10641;SDS011;5369;49.586;8.646;2022-12-16T09:03:25;27.53;;;15.57;;
10641;SDS011;5369;49.586;8.646;2022-12-16T09:06:10;27.00;;;15.27;;
10641;SDS011;5369;49.586;8.646;2022-12-16T09:08:55;31.67;;;16.73;;
10641;SDS011;5369;49.586;8.646;2022-12-16T09:11:40;28.00;;;16.17;;
10641;SDS011;5369;49.586;8.646;2022-12-16T09:14:25;28.40;;;16.30;;
10641;SDS011;5369;49.586;8.646;2022-12-16T09:17:10;28.50;;;16.07;;
10641;SDS011;5369;49.586;8.646;2022-12-16T09:19:55;31.50;;;17.03;;
10641;SDS011;5369;49.586;8.646;2022-12-16T09:22:40;29.50;;;16.97;;
10641;SDS011;5369;49.586;8.646;2022-12-16T09:25:25;26.10;;;15.70;;
10641;SDS011;5369;49.586;8.646;2022-12-16T09:28:10;27.63;;;15.80;;
10641;SDS011;5369;49.586;8.646;2022-12-16T09:30:55;26.80;;;15.47;;
10641;SDS011;5369;49.586;8.646;2022-12-16T09:33:40;27.53;;;15.97;;
10641;SDS011;5369;49.586;8.646;2022-12-16T09:36:37;25.27;;;15.57;;
10641;SDS011;5369;49.586;8.646;2022-12-16T09:39:22;26.10;;;15.17;;
10641;SDS011;5369;49.586;8.646;2022-12-16T09:45:17;27.53;;;14.77;;
10641;SDS011;5369;49.586;8.646;2022-12-16T09:51:01;29.30;;;16.53;;
10641;SDS011;5369;49.586;8.646;2022-12-16T09:53:49;27.13;;;16.00;;
10641;SDS011;5369;49.586;8.646;2022-12-16T09:56:35;27.20;;;15.97;;
10641;SDS011;5369;49.586;8.646;2022-12-16T09:59:24;29.70;;;16.63;;
10641;SDS011;5369;49.586;8.646;2022-12-16T10:02:11;30.30;;;16.63;;
10641;SDS011;5369;49.586;8.646;2022-12-16T10:04:57;28.53;;;16.40;;
10641;SDS011;5369;49.586;8.646;2022-12-16T10:07:45;27.57;;;16.73;;
10641;SDS011;5369;49.586;8.646;2022-12-16T10:10:33;25.37;;;15.73;;
10641;SDS011;5369;49.586;8.646;2022-12-16T10:13:36;25.43;;;15.53;;
10641;SDS011;5369;49.586;8.646;2022-12-16T10:19:46;24.73;;;15.33;;
10641;SDS011;5369;49.586;8.646;2022-12-16T10:22:54;24.63;;;14.87;;
10641;SDS011;5369;49.586;8.646;2022-12-16T10:28:44;23.27;;;14.83;;
10641;SDS011;5369;49.586;8.646;2022-12-16T10:31:30;24.63;;;14.47;;
10641;SDS011;5369;49.586;8.646;2022-12-16T10:34:20;23.90;;;14.30;;
10641;SDS011;5369;49.586;8.646;2022-12-16T10:37:17;22.00;;;14.00;;
10641;SDS011;5369;49.586;8.646;2022-12-16T10:40:04;23.53;;;14.03;;
10641;SDS011;5369;49.586;8.646;2022-12-16T10:43:03;25.20;;;15.17;;
10641;SDS011;5369;49.586;8.646;2022-12-16T10:45:50;23.70;;;14.67;;
10641;SDS011;5369;49.586;8.646;2022-12-16T10:48:36;24.67;;;14.87;;
10641;SDS011;5369;49.586;8.646;2022-12-16T10:51:22;23.13;;;14.23;;
10641;SDS011;5369;49.586;8.646;2022-12-16T10:54:19;22.30;;;13.63;;
10641;SDS011;5369;49.586;8.646;2022-12-16T10:57:14;23.07;;;14.90;;
10641;SDS011;5369;49.586;8.646;2022-12-16T11:00:09;20.80;;;14.07;;
10641;SDS011;5369;49.586;8.646;2022-12-16T11:02:59;22.87;;;15.17;;
10641;SDS011;5369;49.586;8.646;2022-12-16T11:05:59;21.50;;;13.30;;
10641;SDS011;5369;49.586;8.646;2022-12-16T11:08:45;22.20;;;13.70;;
10641;SDS011;5369;49.586;8.646;2022-12-16T11:11:30;22.03;;;12.90;;
10641;SDS011;5369;49.586;8.646;2022-12-16T11:14:16;21.23;;;14.10;;
10641;SDS011;5369;49.586;8.646;2022-12-16T11:17:20;22.80;;;14.93;;
10641;SDS011;5369;49.586;8.646;2022-12-16T11:29:08;19.80;;;13.00;;
10641;SDS011;5369;49.586;8.646;2022-12-16T11:31:55;20.13;;;13.20;;
10641;SDS011;5369;49.586;8.646;2022-12-16T11:34:42;21.57;;;12.87;;
10641;SDS011;5369;49.586;8.646;2022-12-16T11:37:29;20.40;;;13.83;;
10641;SDS011;5369;49.586;8.646;2022-12-16T11:40:15;20.30;;;12.53;;
10641;SDS011;5369;49.586;8.646;2022-12-16T11:43:01;20.80;;;13.37;;
10641;SDS011;5369;49.586;8.646;2022-12-16T11:45:47;22.87;;;14.00;;
10641;SDS011;5369;49.586;8.646;2022-12-16T11:51:18;19.43;;;13.00;;
10641;SDS011;5369;49.586;8.646;2022-12-16T11:54:08;17.17;;;11.47;;
10641;SDS011;5369;49.586;8.646;2022-12-16T11:56:54;17.63;;;12.23;;
10641;SDS011;5369;49.586;8.646;2022-12-16T12:08:46;16.87;;;11.30;;
10641;SDS011;5369;49.586;8.646;2022-12-16T12:11:35;17.50;;;11.43;;
10641;SDS011;5369;49.586;8.646;2022-12-16T12:14:29;15.87;;;10.87;;
10641;SDS011;5369;49.586;8.646;2022-12-16T12:23:32;16.67;;;11.37;;
10641;SDS011;5369;49.586;8.646;2022-12-16T12:26:21;14.40;;;10.13;;
10641;SDS011;5369;49.586;8.646;2022-12-16T12:29:13;12.57;;;9.10;;
10641;SDS011;5369;49.586;8.646;2022-12-16T12:35:36;12.70;;;9.43;;
10641;SDS011;5369;49.586;8.646;2022-12-16T12:41:32;14.70;;;9.30;;
10641;SDS011;5369;49.586;8.646;2022-12-16T12:44:25;15.27;;;8.97;;
10641;SDS011;5369;49.586;8.646;2022-12-16T12:47:15;11.73;;;8.57;;
10641;SDS011;5369;49.586;8.646;2022-12-16T12:50:03;14.03;;;9.20;;
10641;SDS011;5369;49.586;8.646;2022-12-16T12:55:46;12.47;;;8.70;;
10641;SDS011;5369;49.586;8.646;2022-12-16T12:58:34;12.17;;;9.03;;
10641;SDS011;5369;49.586;8.646;2022-12-16T13:01:21;14.80;;;9.77;;
10641;SDS011;5369;49.586;8.646;2022-12-16T13:04:11;13.37;;;9.53;;
10641;SDS011;5369;49.586;8.646;2022-12-16T13:07:00;15.97;;;10.23;;
10641;SDS011;5369;49.586;8.646;2022-12-16T13:09:45;21.50;;;11.47;;
10641;SDS011;5369;49.586;8.646;2022-12-16T13:13:17;12.97;;;9.33;;
10641;SDS011;5369;49.586;8.646;2022-12-16T13:15:55;14.20;;;9.27;;
10641;SDS011;5369;49.586;8.646;2022-12-16T13:18:40;14.07;;;9.73;;
10641;SDS011;5369;49.586;8.646;2022-12-16T13:24:37;13.17;;;9.40;;
10641;SDS011;5369;49.586;8.646;2022-12-16T13:27:22;12.93;;;8.77;;
10641;SDS011;5369;49.586;8.646;2022-12-16T13:32:57;14.97;;;10.13;;
10641;SDS011;5369;49.586;8.646;2022-12-16T13:36:05;14.47;;;9.40;;
10641;SDS011;5369;49.586;8.646;2022-12-16T13:38:53;12.73;;;8.87;;
10641;SDS011;5369;49.586;8.646;2022-12-16T13:44:52;14.83;;;9.63;;
10641;SDS011;5369;49.586;8.646;2022-12-16T13:50:45;14.73;;;10.10;;
10641;SDS011;5369;49.586;8.646;2022-12-16T13:53:58;14.30;;;9.93;;
10641;SDS011;5369;49.586;8.646;2022-12-16T13:56:45;14.07;;;10.30;;
10641;SDS011;5369;49.586;8.646;2022-12-16T13:59:31;15.97;;;10.90;;
10641;SDS011;5369;49.586;8.646;2022-12-16T14:05:08;15.73;;;10.67;;
10641;SDS011;5369;49.586;8.646;2022-12-16T14:07:57;14.27;;;10.50;;
10641;SDS011;5369;49.586;8.646;2022-12-16T14:10:44;16.03;;;11.00;;
10641;SDS011;5369;49.586;8.646;2022-12-16T14:13:39;13.57;;;9.70;;
10641;SDS011;5369;49.586;8.646;2022-12-16T14:17:10;14.17;;;10.47;;
10641;SDS011;5369;49.586;8.646;2022-12-16T14:25:39;14.17;;;10.20;;
10641;SDS011;5369;49.586;8.646;2022-12-16T14:28:28;14.87;;;9.63;;
10641;SDS011;5369;49.586;8.646;2022-12-16T14:31:21;15.40;;;10.73;;
10641;SDS011;5369;49.586;8.646;2022-12-16T14:37:05;17.27;;;10.53;;
10641;SDS011;5369;49.586;8.646;2022-12-16T14:39:50;17.03;;;10.93;;
10641;SDS011;5369;49.586;8.646;2022-12-16T14:42:38;16.77;;;10.43;;
10641;SDS011;5369;49.586;8.646;2022-12-16T14:45:27;17.07;;;10.57;;
10641;SDS011;5369;49.586;8.646;2022-12-16T14:54:46;17.90;;;10.87;;
10641;SDS011;5369;49.586;8.646;2022-12-16T14:57:16;17.83;;;12.07;;
10641;SDS011;5369;49.586;8.646;2022-12-16T15:00:08;18.80;;;11.20;;
10641;SDS011;5369;49.586;8.646;2022-12-16T15:02:55;17.13;;;11.30;;
10641;SDS011;5369;49.586;8.646;2022-12-16T15:05:43;18.07;;;11.70;;
10641;SDS011;5369;49.586;8.646;2022-12-16T15:08:32;18.07;;;11.57;;
10641;SDS011;5369;49.586;8.646;2022-12-16T15:11:27;19.37;;;11.37;;
10641;SDS011;5369;49.586;8.646;2022-12-16T15:14:13;17.80;;;11.47;;
10641;SDS011;5369;49.586;8.646;2022-12-16T15:17:01;17.90;;;11.77;;
10641;SDS011;5369;49.586;8.646;2022-12-16T15:20:13;18.33;;;11.60;;
10641;SDS011;5369;49.586;8.646;2022-12-16T15:22:59;18.30;;;11.53;;
10641;SDS011;5369;49.586;8.646;2022-12-16T15:25:47;17.87;;;11.93;;
10641;SDS011;5369;49.586;8.646;2022-12-16T15:28:39;19.57;;;11.80;;
10641;SDS011;5369;49.586;8.646;2022-12-16T15:31:25;19.03;;;12.37;;
10641;SDS011;5369;49.586;8.646;2022-12-16T15:34:24;19.60;;;12.90;;
10641;SDS011;5369;49.586;8.646;2022-12-16T15:37:16;18.50;;;12.07;;
10641;SDS011;5369;49.586;8.646;2022-12-16T15:40:01;21.63;;;12.80;;
10641;SDS011;5369;49.586;8.646;2022-12-16T15:42:50;18.17;;;11.53;;
10641;SDS011;5369;49.586;8.646;2022-12-16T15:45:35;18.10;;;11.47;;
10641;SDS011;5369;49.586;8.646;2022-12-16T15:48:22;15.10;;;10.27;;
10641;SDS011;5369;49.586;8.646;2022-12-16T15:54:04;17.20;;;11.33;;
10641;SDS011;5369;49.586;8.646;2022-12-16T15:56:49;18.42;;;13.10;;
10641;SDS011;5369;49.586;8.646;2022-12-16T15:59:35;17.33;;;11.90;;
10641;SDS011;5369;49.586;8.646;2022-12-16T16:02:25;19.30;;;14.30;;
10641;SDS011;5369;49.586;8.646;2022-12-16T16:05:20;22.03;;;14.00;;
10641;SDS011;5369;49.586;8.646;2022-12-16T16:08:05;18.25;;;13.73;;
10641;SDS011;5369;49.586;8.646;2022-12-16T16:10:50;19.60;;;14.85;;
10641;SDS011;5369;49.586;8.646;2022-12-16T16:13:35;20.05;;;15.48;;
10641;SDS011;5369;49.586;8.646;2022-12-16T16:16:20;24.77;;;15.95;;
10641;SDS011;5369;49.586;8.646;2022-12-16T16:19:09;22.50;;;15.98;;
10641;SDS011;5369;49.586;8.646;2022-12-16T16:21:56;24.87;;;16.73;;
10641;SDS011;5369;49.586;8.646;2022-12-16T16:24:57;21.55;;;15.13;;
10641;SDS011;5369;49.586;8.646;2022-12-16T16:27:42;23.90;;;17.55;;
10641;SDS011;5369;49.586;8.646;2022-12-16T16:30:27;23.70;;;14.93;;
10641;SDS011;5369;49.586;8.646;2022-12-16T16:33:12;24.97;;;15.57;;
10641;SDS011;5369;49.586;8.646;2022-12-16T16:35:57;24.17;;;15.10;;
10641;SDS011;5369;49.586;8.646;2022-12-16T16:38:42;28.20;;;18.27;;
10641;SDS011;5369;49.586;8.646;2022-12-16T16:41:27;26.67;;;17.33;;
10641;SDS011;5369;49.586;8.646;2022-12-16T16:44:13;24.85;;;18.05;;
10641;SDS011;5369;49.586;8.646;2022-12-16T16:46:57;28.90;;;17.33;;
10641;SDS011;5369;49.586;8.646;2022-12-16T16:49:46;25.30;;;18.70;;
10641;SDS011;5369;49.586;8.646;2022-12-16T16:52:31;24.73;;;16.50;;
10641;SDS011;5369;49.586;8.646;2022-12-16T16:55:18;25.00;;;16.98;;
10641;SDS011;5369;49.586;8.646;2022-12-16T16:58:05;26.20;;;16.83;;
10641;SDS011;5369;49.586;8.646;2022-12-16T17:00:51;28.70;;;17.33;;
10641;SDS011;5369;49.586;8.646;2022-12-16T17:03:36;27.50;;;17.47;;
10641;SDS011;5369;49.586;8.646;2022-12-16T17:06:20;23.83;;;15.07;;
10641;SDS011;5369;49.586;8.646;2022-12-16T17:09:06;26.45;;;19.27;;
10641;SDS011;5369;49.586;8.646;2022-12-16T17:11:50;24.50;;;15.43;;
10641;SDS011;5369;49.586;8.646;2022-12-16T17:14:36;22.37;;;14.77;;
10641;SDS011;5369;49.586;8.646;2022-12-16T17:17:21;24.27;;;16.38;;
10641;SDS011;5369;49.586;8.646;2022-12-16T17:20:07;26.50;;;15.10;;
10641;SDS011;5369;49.586;8.646;2022-12-16T17:22:52;21.83;;;13.83;;
10641;SDS011;5369;49.586;8.646;2022-12-16T17:25:37;25.00;;;16.27;;
10641;SDS011;5369;49.586;8.646;2022-12-16T17:28:22;24.17;;;16.58;;
10641;SDS011;5369;49.586;8.646;2022-12-16T17:31:07;28.42;;;19.88;;
10641;SDS011;5369;49.586;8.646;2022-12-16T17:33:53;29.90;;;20.10;;
10641;SDS011;5369;49.586;8.646;2022-12-16T17:36:38;26.83;;;19.58;;
10641;SDS011;5369;49.586;8.646;2022-12-16T17:39:23;26.47;;;18.40;;
10641;SDS011;5369;49.586;8.646;2022-12-16T17:42:08;23.70;;;15.90;;
10641;SDS011;5369;49.586;8.646;2022-12-16T17:44:53;26.23;;;16.97;;
10641;SDS011;5369;49.586;8.646;2022-12-16T17:47:38;27.47;;;17.53;;
10641;SDS011;5369;49.586;8.646;2022-12-16T17:50:23;26.17;;;16.80;;
10641;SDS011;5369;49.586;8.646;2022-12-16T17:53:08;28.57;;;20.83;;
10641;SDS011;5369;49.586;8.646;2022-12-16T17:55:52;25.67;;;18.00;;